Terminal Aerodrome Forecast
Issued by NWS Wilmington, OH

Current Version | Previous Version | Text Only | Print | Product List | Glossary Off
Versions: 1 2 3 4 5 6 7 8 9 10 11 12 13 14 15 16 17 18 19 20 21

000
FTUS41 KILN 241100
TAFCMH
TAF
KCMH 241120Z 2412/2512 00000KT P6SM SKC
     FM241400 27011KT P6SM FEW050 SCT250
     FM242300 17004KT P6SM SCT100 BKN150
     FM250400 12005KT P6SM OVC100
     FM250800 14006KT P6SM SCT035 OVC060=

USA.gov is the U.S. government's official web portal to all federal, state and local government web resources and services.